Estación de El Palqui

Ultimos registro cada 15 minutos 45
Estación Fecha / Hora Temperatura Humedad Lluvia Velocidad Dirección Radiación Presion
45 El Palqui 04-09-2026 12:45 23,8 40 0 0,9 216 671 1013,2
44 El Palqui 04-09-2026 12:15 23,6 46 0 1,3 176 835 1013,4
43 El Palqui 04-09-2026 12:00 23,1 45 0 0,4 199 800 1013,5
42 El Palqui 04-09-2026 11:45 22,7 46 0 0,9 212 788 1013,7
41 El Palqui 04-09-2026 11:30 22,2 47 0 0 183 788 1014
40 El Palqui 04-09-2026 11:15 21,3 49 0 0 178 766 1014,2
39 El Palqui 04-09-2026 11:00 20,8 52 0 0,9 236 810 1014,3
38 El Palqui 04-09-2026 10:45 20,2 56 0 0 235 721 1014,4
37 El Palqui 04-09-2026 10:15 18,4 61 0 0 176 605 1014,9
36 El Palqui 04-09-2026 10:00 17,7 61 0 0,9 193 566 1014,8
35 El Palqui 04-09-2026 09:45 16,9 64 0 0,4 178 520 1015,1
34 El Palqui 04-09-2026 09:15 15,5 71 0 0 195 432 1015,5
33 El Palqui 04-09-2026 09:00 14,9 73 0 0,4 178 385 1015,6
32 El Palqui 04-09-2026 08:45 15 75 0 0,9 175 216 1015,7
31 El Palqui 04-09-2026 08:30 13,8 83 0 0 357 285 1015,8
30 El Palqui 04-09-2026 08:15 11,7 92 0 0 356 30 1015,8
29 El Palqui 04-09-2026 08:00 10,1 91 0 0 356 72 1016
28 El Palqui 04-09-2026 07:45 9,5 91 0 0 356 54 1016
27 El Palqui 04-09-2026 07:30 9,3 91 0 0,4 356 39 1015,8
26 El Palqui 04-09-2026 07:15 9 91 0 0 356 21 1015,9
25 El Palqui 04-09-2026 07:00 8,8 90 0 0,4 356 9 1015,8
24 El Palqui 04-09-2026 06:45 9,1 91 0 0 355 0 1015,6
23 El Palqui 04-09-2026 06:15 9,1 90 0 0,4 360 0 1015,6
22 El Palqui 04-09-2026 06:00 9,4 89 0 0 360 0 1015,6
21 El Palqui 04-09-2026 05:45 9,9 89 0 0,4 360 0 1015,5
20 El Palqui 04-09-2026 05:15 10,6 89 0 0 357 0 1015,5
19 El Palqui 04-09-2026 05:00 10,7 88 0 0,4 357 0 1015,5
18 El Palqui 04-09-2026 04:45 11,3 87 0 0 357 0 1015,5
17 El Palqui 04-09-2026 04:30 11,7 87 0 0 357 0 1015,5
16 El Palqui 04-09-2026 04:15 11,9 88 0 0 357 0 1015,7
15 El Palqui 04-09-2026 04:00 11,8 88 0 0 357 0 1015,8
14 El Palqui 04-09-2026 03:45 11,6 88 0 0 357 0 1015,8
13 El Palqui 04-09-2026 03:15 11,7 87 0 0 357 0 1016,3
12 El Palqui 04-09-2026 03:00 11,8 87 0 0 357 0 1016,3
11 El Palqui 04-09-2026 02:45 11,8 87 0 0 357 0 1016,3
10 El Palqui 04-09-2026 02:15 12,2 86 0 0 357 0 1016,7
9 El Palqui 04-09-2026 02:00 12,3 86 0 0 357 0 1016,8
8 El Palqui 04-09-2026 01:45 12,4 86 0 0 357 0 1017
7 El Palqui 04-09-2026 01:30 12,6 86 0 0 357 0 1017,2
6 El Palqui 04-09-2026 01:15 12,4 86 0 0 357 0 1017,1
5 El Palqui 04-09-2026 01:00 12,4 86 0 0 331 0 1017,6
4 El Palqui 04-09-2026 00:45 12,5 86 0 0 331 0 1017,6
3 El Palqui 04-09-2026 00:30 12,7 86 0 0 331 0 1017,3
2 El Palqui 04-09-2026 00:15 12,6 86 0 0 331 0 1017,4
1 El Palqui 04-09-2026 00:00 12,4 87 0 0,9 331 0 1017,7